| time (UTC) | temp F | wind direction | speed MPH | gust MPH | rain 1hr in | rain 24hr in | rain mn in | humidity % | barometer mb |
| 20260509024024 | 57 | 60 | 0.0 | 2.0 | 0.00 | 0.00 | 0.00 | 82 | 1011.7 |
| 20260509023524 | 57 | 0 | 0.0 | 4.0 | 0.00 | 0.00 | 0.00 | 82 | 1011.8 |
| 20260509023037 | 58 | 0 | 0.0 | 4.0 | 0.00 | 0.00 | 0.00 | 82 | 1011.8 |
| 20260509022525 | 58 | 154 | 0.0 | 4.0 | 0.00 | 0.00 | 0.00 | 81 | 1011.7 |
| 20260509022023 | 58 | 121 | 0.0 | 4.0 | 0.00 | 0.00 | 0.00 | 81 | 1011.6 |
| 20260509021540 | 59 | 0 | 0.0 | 3.0 | 0.00 | 0.00 | 0.00 | 79 | 1011.5 |
| 20260509021023 | 59 | 0 | 0.0 | 3.0 | 0.00 | 0.00 | 0.00 | 78 | 1011.3 |
| 20260509020523 | 59 | 0 | 0.0 | 1.0 | 0.00 | 0.00 | 0.00 | 76 | 1011.1 |
| 20260509020043 | 60 | 0 | 0.0 | 1.0 | 0.00 | 0.00 | 0.00 | 76 | 1011.0 |
| 20260509015525 | 60 | 0 | 0.0 | 2.0 | 0.00 | 0.00 | 0.00 | 75 | 1010.8 |
| 20260509015026 | 60 | 0 | 0.0 | 2.0 | 0.00 | 0.00 | 0.00 | 76 | 1010.8 |
| 20260509014539 | 61 | 0 | 0.0 | 1.0 | 0.00 | 0.00 | 0.00 | 72 | 1010.8 |
| 20260509014026 | 61 | 0 | 0.0 | 1.0 | 0.00 | 0.00 | 0.00 | 72 | 1010.6 |
| 20260509013528 | 61 | 0 | 0.0 | 0.0 | 0.00 | 0.00 | 0.00 | 72 | 1010.7 |
| 20260509013038 | 61 | 0 | 0.0 | 1.0 | 0.00 | 0.00 | 0.00 | 69 | 1010.6 |
| 20260509012527 | 62 | 0 | 0.0 | 4.0 | 0.00 | 0.00 | 0.00 | 67 | 1010.7 |
| 20260509012030 | 62 | 0 | 0.0 | 4.0 | 0.00 | 0.00 | 0.00 | 67 | 1010.8 |
| 20260509011537 | 62 | 175 | 1.0 | 7.0 | 0.00 | 0.00 | 0.00 | 66 | 1010.9 |
| 20260509011027 | 61 | 218 | 1.0 | 7.0 | 0.00 | 0.00 | 0.00 | 66 | 1010.8 |
| 20260509010526 | 61 | 220 | 2.0 | 7.0 | 0.00 | 0.00 | 0.00 | 67 | 1011.0 |
| 20260509010037 | 62 | 182 | 0.0 | 2.0 | 0.00 | 0.00 | 0.00 | 69 | 1010.9 |
| 20260509005526 | 62 | 0 | 0.0 | 0.0 | 0.00 | 0.00 | 0.00 | 66 | 1010.8 |
| 20260509005026 | 62 | 0 | 0.0 | 0.0 | 0.00 | 0.00 | 0.00 | 64 | 1010.7 |
| 20260509004549 | 63 | 0 | 0.0 | 0.0 | 0.00 | 0.00 | 0.00 | 63 | 1010.6 |
| 20260509004027 | 63 | 0 | 0.0 | 0.0 | 0.00 | 0.00 | 0.00 | 62 | 1010.5 |
| 20260509003526 | 63 | 0 | 0.0 | 0.0 | 0.00 | 0.00 | 0.00 | 61 | 1010.4 |
| 20260509003049 | 63 | 0 | 0.0 | 0.0 | 0.00 | 0.00 | 0.00 | 61 | 1010.3 |
| 20260509002526 | 64 | 0 | 0.0 | 0.0 | 0.00 | 0.00 | 0.00 | 59 | 1010.3 |
| 20260509002026 | 64 | 0 | 0.0 | 0.0 | 0.00 | 0.00 | 0.00 | 58 | 1010.3 |
| 20260509001538 | 64 | 0 | 0.0 | 1.0 | 0.00 | 0.00 | 0.00 | 57 | 1010.3 |
| 20260509001025 | 64 | 0 | 0.0 | 1.0 | 0.00 | 0.00 | 0.00 | 58 | 1010.5 |
| 20260509000525 | 64 | 0 | 0.0 | 2.0 | 0.00 | 0.00 | 0.00 | 56 | 1010.6 |
| 20260509000038 | 64 | 0 | 0.0 | 2.0 | 0.00 | 0.00 | 0.00 | 55 | 1010.7 |
| 20260508235524 | 65 | 0 | 0.0 | 1.0 | 0.00 | 0.00 | 0.00 | 55 | 1010.6 |
| 20260508235027 | 64 | 0 | 0.0 | 2.0 | 0.00 | 0.00 | 0.00 | 54 | 1010.5 |
| 20260508234544 | 65 | 0 | 0.0 | 2.0 | 0.00 | 0.00 | 0.00 | 56 | 1010.4 |
| 20260508234026 | 65 | 0 | 0.0 | 0.0 | 0.00 | 0.00 | 0.00 | 56 | 1010.4 |
| 20260508233524 | 65 | 0 | 0.0 | 1.0 | 0.00 | 0.00 | 0.00 | 57 | 1010.3 |
| 20260508233040 | 65 | 0 | 0.0 | 2.0 | 0.00 | 0.00 | 0.00 | 57 | 1010.2 |
| 20260508232525 | 65 | 0 | 0.0 | 2.0 | 0.00 | 0.00 | 0.00 | 56 | 1010.2 |
| 20260508232027 | 66 | 0 | 0.0 | 2.0 | 0.00 | 0.00 | 0.00 | 55 | 1010.2 |
| 20260508231538 | 66 | 0 | 0.0 | 2.0 | 0.00 | 0.00 | 0.00 | 53 | 1010.4 |
| 20260508231027 | 66 | 0 | 0.0 | 4.0 | 0.00 | 0.00 | 0.00 | 54 | 1010.5 |
| 20260508230526 | 66 | 0 | 0.0 | 4.0 | 0.00 | 0.00 | 0.00 | 53 | 1010.4 |
| 20260508230040 | 66 | 187 | 1.0 | 4.0 | 0.00 | 0.00 | 0.00 | 51 | 1010.5 |
| 20260508225527 | 66 | 186 | 1.0 | 3.0 | 0.00 | 0.00 | 0.00 | 51 | 1010.2 |
| 20260508225024 | 66 | 185 | 0.0 | 3.0 | 0.00 | 0.00 | 0.00 | 52 | 1010.3 |
| 20260508224549 | 66 | 185 | 1.0 | 3.0 | 0.00 | 0.00 | 0.00 | 50 | 1010.2 |
| 20260508224027 | 67 | 194 | 1.0 | 4.0 | 0.00 | 0.00 | 0.00 | 54 | 1010.2 |
| 20260508223527 | 67 | 157 | 1.0 | 5.0 | 0.00 | 0.00 | 0.00 | 54 | 1010.2 |
| 20260508223047 | 67 | 175 | 1.0 | 5.0 | 0.00 | 0.00 | 0.00 | 51 | 1010.2 |
| 20260508222526 | 67 | 187 | 1.0 | 4.0 | 0.00 | 0.00 | 0.00 | 53 | 1010.2 |
| 20260508222026 | 67 | 182 | 1.0 | 4.0 | 0.00 | 0.00 | 0.00 | 50 | 1010.1 |
| 20260508221543 | 67 | 0 | 2.0 | 4.0 | 0.00 | 0.00 | 0.00 | 51 | 1010.1 |
| 20260508221030 | 67 | 207 | 2.0 | 7.0 | 0.00 | 0.00 | 0.00 | 53 | 1010.2 |
| 20260508220523 | 67 | 213 | 2.0 | 7.0 | 0.00 | 0.00 | 0.00 | 49 | 1010.2 |
| 20260508220048 | 67 | 184 | 2.0 | 6.0 | 0.00 | 0.00 | 0.00 | 48 | 1010.1 |
| 20260508215523 | 67 | 0 | 2.0 | 7.0 | 0.00 | 0.00 | 0.00 | 49 | 1010.1 |
| 20260508215024 | 67 | 130 | 1.0 | 7.0 | 0.00 | 0.00 | 0.00 | 51 | 1010.0 |
| 20260508214539 | 67 | 203 | 1.0 | 5.0 | 0.00 | 0.00 | 0.00 | 49 | 1010.0 |
| 20260508214026 | 67 | 180 | 0.0 | 5.0 | 0.00 | 0.00 | 0.00 | 53 | 1010.1 |
| 20260508213523 | 67 | 155 | 2.0 | 11.0 | 0.00 | 0.00 | 0.00 | 47 | 1010.1 |
| 20260508213037 | 67 | 0 | 1.0 | 11.0 | 0.00 | 0.00 | 0.00 | 51 | 1010.2 |
| 20260508212527 | 68 | 321 | 2.0 | 9.0 | 0.00 | 0.00 | 0.00 | 48 | 1010.2 |
| 20260508212026 | 68 | 0 | 1.0 | 6.0 | 0.00 | 0.00 | 0.00 | 50 | 1010.3 |
| 20260508211540 | 68 | 171 | 1.0 | 9.0 | 0.00 | 0.00 | 0.00 | 49 | 1010.2 |
| 20260508211025 | 68 | 176 | 3.0 | 9.0 | 0.00 | 0.00 | 0.00 | 46 | 1010.3 |
| 20260508210524 | 68 | 173 | 2.0 | 8.0 | 0.00 | 0.00 | 0.00 | 48 | 1010.4 |
| 20260508210044 | 68 | 197 | 2.0 | 8.0 | 0.00 | 0.00 | 0.00 | 52 | 1010.4 |
| 20260508205523 | 68 | 195 | 1.0 | 5.0 | 0.00 | 0.00 | 0.00 | 51 | 1010.6 |
| 20260508205023 | 68 | 219 | 2.0 | 9.0 | 0.00 | 0.00 | 0.00 | 46 | 1010.7 |
| 20260508204538 | 68 | 0 | 2.0 | 10.0 | 0.00 | 0.00 | 0.00 | 48 | 1010.8 |
| 20260508204024 | 68 | 198 | 1.0 | 10.0 | 0.00 | 0.00 | 0.00 | 49 | 1010.9 |
| 20260508203524 | 68 | 184 | 4.0 | 10.0 | 0.00 | 0.00 | 0.00 | 46 | 1011.0 |
| 20260508203042 | 68 | 177 | 1.0 | 8.0 | 0.00 | 0.00 | 0.00 | 47 | 1011.0 |
| 20260508202526 | 69 | 173 | 3.0 | 8.0 | 0.00 | 0.00 | 0.00 | 46 | 1011.1 |
| 20260508202029 | 69 | 187 | 3.0 | 7.0 | 0.00 | 0.00 | 0.00 | 45 | 1011.2 |
| 20260508201541 | 69 | 211 | 2.0 | 7.0 | 0.00 | 0.00 | 0.00 | 48 | 1011.3 |
| 20260508201029 | 69 | 269 | 2.0 | 7.0 | 0.00 | 0.00 | 0.00 | 48 | 1011.3 |
| 20260508200523 | 68 | 217 | 1.0 | 7.0 | 0.00 | 0.00 | 0.00 | 49 | 1011.5 |
| 20260508200038 | 67 | 205 | 1.0 | 9.0 | 0.00 | 0.00 | 0.00 | 49 | 1011.6 |
| 20260508195530 | 67 | 182 | 2.0 | 9.0 | 0.00 | 0.00 | 0.00 | 53 | 1011.5 |
| 20260508195026 | 67 | 213 | 3.0 | 10.0 | 0.00 | 0.00 | 0.00 | 46 | 1011.6 |
| 20260508194540 | 67 | 197 | 3.0 | 10.0 | 0.00 | 0.00 | 0.00 | 49 | 1011.6 |
| 20260508194023 | 67 | 182 | 2.0 | 11.0 | 0.00 | 0.00 | 0.00 | 49 | 1011.7 |
| 20260508193524 | 67 | 203 | 2.0 | 11.0 | 0.00 | 0.00 | 0.00 | 47 | 1011.7 |
| 20260508193038 | 67 | 0 | 1.0 | 7.0 | 0.00 | 0.00 | 0.00 | 47 | 1011.7 |
| 20260508192525 | 68 | 186 | 4.0 | 9.0 | 0.00 | 0.00 | 0.00 | 46 | 1011.8 |
| 20260508192023 | 68 | 178 | 3.0 | 9.0 | 0.00 | 0.00 | 0.00 | 49 | 1011.8 |
| 20260508191548 | 68 | 194 | 3.0 | 11.0 | 0.00 | 0.00 | 0.00 | 48 | 1011.7 |
| 20260508191026 | 69 | 184 | 1.0 | 11.0 | 0.00 | 0.00 | 0.00 | 48 | 1011.8 |
| 20260508190526 | 70 | 201 | 3.0 | 9.0 | 0.00 | 0.00 | 0.00 | 44 | 1011.9 |
| 20260508190040 | 70 | 158 | 2.0 | 9.0 | 0.00 | 0.00 | 0.00 | 48 | 1012.0 |
| 20260508185526 | 70 | 0 | 3.0 | 9.0 | 0.00 | 0.00 | 0.00 | 45 | 1012.1 |
| 20260508185027 | 70 | 181 | 2.0 | 12.0 | 0.00 | 0.00 | 0.00 | 48 | 1012.3 |
| 20260508184539 | 69 | 220 | 4.0 | 12.0 | 0.00 | 0.00 | 0.00 | 45 | 1012.3 |
| 20260508184023 | 69 | 188 | 4.0 | 9.0 | 0.00 | 0.00 | 0.00 | 45 | 1012.4 |
| 20260508183526 | 69 | 189 | 3.0 | 9.0 | 0.00 | 0.00 | 0.00 | 47 | 1012.4 |
| 20260508183040 | 68 | 180 | 2.0 | 10.0 | 0.00 | 0.00 | 0.00 | 52 | 1012.4 |
| 20260508182524 | 68 | 175 | 3.0 | 12.0 | 0.00 | 0.00 | 0.00 | 48 | 1012.7 |
| 20260508182029 | 67 | 169 | 1.0 | 12.0 | 0.00 | 0.00 | 0.00 | 52 | 1012.8 |
| 20260508181536 | 67 | 267 | 2.0 | 11.0 | 0.00 | 0.00 | 0.00 | 48 | 1012.8 |
| 20260508181026 | 68 | 198 | 2.0 | 11.0 | 0.00 | 0.00 | 0.00 | 48 | 1013.0 |
| 20260508180524 | 68 | 182 | 4.0 | 10.0 | 0.00 | 0.00 | 0.00 | 46 | 1013.0 |
| 20260508180039 | 68 | 225 | 1.0 | 9.0 | 0.00 | 0.00 | 0.00 | 49 | 1013.0 |
| 20260508175527 | 68 | 216 | 2.0 | 13.0 | 0.00 | 0.00 | 0.00 | 48 | 1013.1 |
| 20260508175023 | 67 | 205 | 3.0 | 13.0 | 0.00 | 0.00 | 0.00 | 49 | 1013.1 |
| 20260508174551 | 67 | 157 | 4.0 | 11.0 | 0.00 | 0.00 | 0.00 | 47 | 1013.3 |
| 20260508174024 | 68 | 214 | 4.0 | 11.0 | 0.00 | 0.00 | 0.00 | 47 | 1013.3 |
| 20260508173524 | 68 | 132 | 3.0 | 11.0 | 0.00 | 0.00 | 0.00 | 50 | 1013.4 |
| 20260508173038 | 67 | 134 | 3.0 | 12.0 | 0.00 | 0.00 | 0.00 | 47 | 1013.4 |
| 20260508172525 | 67 | 182 | 3.0 | 12.0 | 0.00 | 0.00 | 0.00 | 46 | 1013.5 |
| 20260508172024 | 68 | 169 | 2.0 | 13.0 | 0.00 | 0.00 | 0.00 | 53 | 1013.6 |
| 20260508171538 | 68 | 173 | 2.0 | 13.0 | 0.00 | 0.00 | 0.00 | 52 | 1013.5 |
| 20260508171023 | 67 | 202 | 4.0 | 13.0 | 0.00 | 0.00 | 0.00 | 48 | 1013.7 |
| 20260508170523 | 67 | 225 | 3.0 | 9.0 | 0.00 | 0.00 | 0.00 | 50 | 1013.7 |
| 20260508170039 | 67 | 153 | 2.0 | 10.0 | 0.00 | 0.00 | 0.00 | 51 | 1013.9 |
| 20260508165525 | 67 | 223 | 3.0 | 18.0 | 0.00 | 0.00 | 0.00 | 49 | 1014.0 |
| 20260508165025 | 67 | 192 | 4.0 | 18.0 | 0.00 | 0.00 | 0.00 | 50 | 1014.2 |
| 20260508164538 | 67 | 223 | 4.0 | 11.0 | 0.00 | 0.00 | 0.00 | 50 | 1014.2 |
| 20260508164023 | 67 | 136 | 2.0 | 13.0 | 0.00 | 0.00 | 0.00 | 50 | 1014.3 |
| 20260508163523 | 67 | 187 | 3.0 | 13.0 | 0.00 | 0.00 | 0.00 | 51 | 1014.4 |
| 20260508163037 | 66 | 247 | 5.0 | 12.0 | 0.00 | 0.00 | 0.00 | 50 | 1014.5 |
| 20260508162524 | 66 | 156 | 3.0 | 9.0 | 0.00 | 0.00 | 0.00 | 54 | 1014.5 |
| 20260508162022 | 66 | 240 | 3.0 | 13.0 | 0.00 | 0.00 | 0.00 | 52 | 1014.6 |
| 20260508161539 | 65 | 223 | 4.0 | 14.0 | 0.00 | 0.00 | 0.00 | 53 | 1014.6 |
| 20260508161024 | 65 | 226 | 3.0 | 14.0 | 0.00 | 0.00 | 0.00 | 52 | 1014.6 |
| 20260508160524 | 65 | 178 | 3.0 | 14.0 | 0.00 | 0.00 | 0.00 | 53 | 1014.6 |
| 20260508160040 | 64 | 292 | 4.0 | 14.0 | 0.00 | 0.00 | 0.00 | 55 | 1014.6 |
| 20260508155528 | 64 | 178 | 4.0 | 14.0 | 0.00 | 0.00 | 0.00 | 53 | 1014.7 |
| 20260508155024 | 64 | 107 | 5.0 | 13.0 | 0.00 | 0.00 | 0.00 | 54 | 1014.8 |
| 20260508154544 | 64 | 150 | 1.0 | 12.0 | 0.00 | 0.00 | 0.00 | 55 | 1014.8 |
| 20260508154025 | 64 | 146 | 3.0 | 12.0 | 0.00 | 0.00 | 0.00 | 57 | 1014.9 |
| 20260508153527 | 63 | 190 | 3.0 | 12.0 | 0.00 | 0.00 | 0.00 | 56 | 1014.9 |
| 20260508153040 | 63 | 189 | 4.0 | 12.0 | 0.00 | 0.00 | 0.00 | 55 | 1015.0 |
| 20260508152523 | 63 | 215 | 4.0 | 12.0 | 0.00 | 0.00 | 0.00 | 55 | 1015.2 |
| 20260508152023 | 63 | 0 | 3.0 | 9.0 | 0.00 | 0.00 | 0.00 | 57 | 1015.2 |
| 20260508151538 | 62 | 179 | 2.0 | 9.0 | 0.00 | 0.00 | 0.00 | 57 | 1015.3 |
| 20260508151025 | 62 | 191 | 4.0 | 9.0 | 0.00 | 0.00 | 0.00 | 56 | 1015.3 |
| 20260508150523 | 62 | 179 | 2.0 | 11.0 | 0.00 | 0.00 | 0.00 | 58 | 1015.4 |
| 20260508150052 | 61 | 189 | 4.0 | 13.0 | 0.00 | 0.00 | 0.00 | 57 | 1015.4 |
| 20260508145523 | 61 | 172 | 4.0 | 13.0 | 0.00 | 0.00 | 0.00 | 58 | 1015.4 |
| 20260508145024 | 60 | 163 | 2.0 | 9.0 | 0.00 | 0.00 | 0.00 | 59 | 1015.5 |
| 20260508144543 | 60 | 0 | 2.0 | 10.0 | 0.00 | 0.00 | 0.00 | 58 | 1015.6 |
| 20260508144023 | 60 | 198 | 2.0 | 10.0 | 0.00 | 0.00 | 0.00 | 58 | 1015.7 |
| 20260508143526 | 59 | 194 | 4.0 | 10.0 | 0.00 | 0.00 | 0.00 | 58 | 1015.5 |
| 20260508143052 | 59 | 192 | 2.0 | 11.0 | 0.00 | 0.00 | 0.00 | 58 | 1015.5 |
| 20260508142524 | 58 | 194 | 3.0 | 11.0 | 0.00 | 0.00 | 0.00 | 59 | 1015.6 |
| 20260508142024 | 58 | 147 | 3.0 | 11.0 | 0.00 | 0.00 | 0.00 | 59 | 1015.7 |
| 20260508141538 | 58 | 180 | 2.0 | 10.0 | 0.00 | 0.00 | 0.00 | 60 | 1015.7 |
| 20260508141026 | 57 | 207 | 3.0 | 11.0 | 0.00 | 0.00 | 0.00 | 59 | 1015.9 |
| 20260508140522 | 57 | 201 | 3.0 | 12.0 | 0.00 | 0.00 | 0.00 | 60 | 1015.9 |
| 20260508140047 | 57 | 198 | 4.0 | 12.0 | 0.00 | 0.00 | 0.00 | 60 | 1015.9 |
| 20260508135523 | 56 | 200 | 2.0 | 11.0 | 0.00 | 0.00 | 0.00 | 62 | 1015.9 |
| 20260508135024 | 56 | 145 | 5.0 | 11.0 | 0.00 | 0.00 | 0.00 | 59 | 1016.0 |
| 20260508134540 | 56 | 142 | 4.0 | 10.0 | 0.00 | 0.00 | 0.00 | 60 | 1016.0 |
| 20260508134023 | 56 | 170 | 2.0 | 9.0 | 0.00 | 0.00 | 0.00 | 61 | 1016.0 |
| 20260508133524 | 56 | 151 | 4.0 | 8.0 | 0.00 | 0.00 | 0.00 | 60 | 1016.0 |
| 20260508133038 | 55 | 182 | 2.0 | 9.0 | 0.00 | 0.00 | 0.00 | 61 | 1016.0 |
| 20260508132523 | 55 | 160 | 4.0 | 10.0 | 0.00 | 0.00 | 0.00 | 60 | 1016.0 |
| 20260508132023 | 55 | 197 | 2.0 | 10.0 | 0.00 | 0.00 | 0.00 | 60 | 1016.0 |
| 20260508131537 | 55 | 235 | 3.0 | 10.0 | 0.00 | 0.00 | 0.00 | 60 | 1016.0 |
| 20260508131023 | 55 | 0 | 2.0 | 10.0 | 0.00 | 0.00 | 0.00 | 61 | 1016.0 |
| 20260508130523 | 54 | 223 | 2.0 | 10.0 | 0.00 | 0.00 | 0.00 | 61 | 1015.9 |
| 20260508130040 | 54 | 0 | 2.0 | 6.0 | 0.00 | 0.00 | 0.00 | 64 | 1016.0 |
| 20260508125524 | 54 | 247 | 0.0 | 7.0 | 0.00 | 0.00 | 0.00 | 63 | 1016.0 |
| 20260508125021 | 53 | 175 | 0.0 | 7.0 | 0.00 | 0.00 | 0.00 | 64 | 1016.0 |
| 20260508124537 | 53 | 186 | 2.0 | 7.0 | 0.00 | 0.00 | 0.00 | 65 | 1015.9 |
| 20260508124021 | 52 | 208 | 0.0 | 6.0 | 0.00 | 0.00 | 0.00 | 65 | 1015.8 |
| 20260508123523 | 52 | 232 | 1.0 | 6.0 | 0.00 | 0.00 | 0.00 | 66 | 1015.8 |
| 20260508123038 | 52 | 238 | 1.0 | 10.0 | 0.00 | 0.00 | 0.00 | 67 | 1015.8 |
| 20260508122524 | 51 | 229 | 2.0 | 10.0 | 0.00 | 0.00 | 0.00 | 66 | 1015.7 |
| 20260508122023 | 51 | 172 | 1.0 | 4.0 | 0.00 | 0.00 | 0.00 | 68 | 1015.8 |
| 20260508121538 | 50 | 194 | 1.0 | 4.0 | 0.00 | 0.00 | 0.00 | 68 | 1015.8 |
| 20260508121023 | 50 | 0 | 1.0 | 4.0 | 0.00 | 0.00 | 0.00 | 70 | 1015.7 |
| 20260508120523 | 50 | 188 | 1.0 | 5.0 | 0.00 | 0.00 | 0.00 | 71 | 1015.7 |
| 20260508120038 | 49 | 199 | 1.0 | 5.0 | 0.00 | 0.00 | 0.00 | 71 | 1015.7 |
| 20260508115523 | 49 | 0 | 0.0 | 4.0 | 0.00 | 0.00 | 0.00 | 73 | 1015.8 |
| 20260508115022 | 48 | 0 | 0.0 | 4.0 | 0.00 | 0.00 | 0.00 | 73 | 1015.7 |
| 20260508114537 | 48 | 183 | 0.0 | 2.0 | 0.00 | 0.00 | 0.00 | 74 | 1015.7 |
| 20260508114023 | 48 | 0 | 0.0 | 2.0 | 0.00 | 0.00 | 0.00 | 75 | 1015.6 |
| 20260508113523 | 48 | 0 | 0.0 | 2.0 | 0.00 | 0.00 | 0.00 | 74 | 1015.7 |
| 20260508113040 | 47 | 0 | 0.0 | 2.0 | 0.00 | 0.00 | 0.00 | 73 | 1015.6 |
| 20260508112527 | 47 | 0 | 0.0 | 2.0 | 0.00 | 0.00 | 0.00 | 73 | 1015.4 |
| 20260508112024 | 47 | 0 | 0.0 | 2.0 | 0.00 | 0.00 | 0.00 | 74 | 1015.4 |
| 20260508111537 | 47 | 0 | 0.0 | 2.0 | 0.00 | 0.00 | 0.00 | 73 | 1015.3 |
| 20260508111027 | 47 | 0 | 0.0 | 2.0 | 0.00 | 0.00 | 0.00 | 76 | 1015.3 |
| 20260508110523 | 47 | 205 | 0.0 | 2.0 | 0.00 | 0.00 | 0.00 | 76 | 1015.3 |
| 20260508110037 | 48 | 0 | 0.0 | 1.0 | 0.00 | 0.00 | 0.00 | 75 | 1015.2 |
| 20260508105528 | 48 | 0 | 0.0 | 2.0 | 0.00 | 0.00 | 0.00 | 75 | 1015.1 |
| 20260508105026 | 48 | 0 | 0.0 | 2.0 | 0.00 | 0.00 | 0.00 | 73 | 1015.1 |
| 20260508104537 | 48 | 0 | 0.0 | 3.0 | 0.00 | 0.00 | 0.00 | 73 | 1015.2 |
| 20260508104023 | 48 | 0 | 0.0 | 3.0 | 0.00 | 0.00 | 0.00 | 74 | 1015.0 |
| 20260508103526 | 47 | 0 | 0.0 | 3.0 | 0.00 | 0.00 | 0.00 | 73 | 1015.2 |
| 20260508103040 | 47 | 0 | 0.0 | 2.0 | 0.00 | 0.00 | 0.00 | 74 | 1015.3 |
| 20260508102523 | 47 | 0 | 0.0 | 2.0 | 0.00 | 0.00 | 0.00 | 74 | 1015.2 |
| 20260508102026 | 46 | 0 | 0.0 | 0.0 | 0.00 | 0.00 | 0.00 | 76 | 1015.3 |
| 20260508101545 | 46 | 0 | 0.0 | 0.0 | 0.00 | 0.00 | 0.00 | 78 | 1015.2 |
| 20260508101025 | 46 | 0 | 0.0 | 0.0 | 0.00 | 0.00 | 0.00 | 80 | 1015.2 |
| 20260508100523 | 46 | 0 | 0.0 | 0.0 | 0.00 | 0.00 | 0.00 | 81 | 1015.2 |
| 20260508100039 | 46 | 0 | 0.0 | 1.0 | 0.00 | 0.00 | 0.00 | 81 | 1015.3 |
| 20260508095526 | 46 | 0 | 0.0 | 1.0 | 0.00 | 0.00 | 0.00 | 80 | 1015.2 |
| 20260508095026 | 45 | 202 | 0.0 | 2.0 | 0.00 | 0.00 | 0.00 | 80 | 1015.3 |
| 20260508094538 | 45 | 0 | 0.0 | 2.0 | 0.00 | 0.00 | 0.00 | 80 | 1015.2 |
| 20260508094026 | 45 | 0 | 0.0 | 3.0 | 0.00 | 0.00 | 0.00 | 81 | 1015.2 |
| 20260508093527 | 44 | 0 | 0.0 | 3.0 | 0.00 | 0.00 | 0.00 | 82 | 1015.3 |
| 20260508093038 | 43 | 0 | 0.0 | 3.0 | 0.00 | 0.00 | 0.00 | 83 | 1015.2 |
| 20260508092523 | 43 | 0 | 0.0 | 2.0 | 0.00 | 0.00 | 0.00 | 87 | 1015.2 |
| 20260508092026 | 42 | 0 | 0.0 | 2.0 | 0.00 | 0.00 | 0.00 | 88 | 1015.1 |
| 20260508091538 | 42 | 203 | 0.0 | 0.0 | 0.00 | 0.00 | 0.00 | 90 | 1015.2 |
| 20260508091025 | 41 | 0 | 0.0 | 0.0 | 0.00 | 0.00 | 0.00 | 91 | 1015.2 |
| 20260508090527 | 41 | 0 | 0.0 | 0.0 | 0.00 | 0.00 | 0.00 | 92 | 1015.2 |
| 20260508090045 | 41 | 0 | 0.0 | 0.0 | 0.00 | 0.00 | 0.00 | 91 | 1015.3 |
| 20260508085530 | 41 | 0 | 0.0 | 0.0 | 0.00 | 0.00 | 0.00 | 90 | 1015.3 |
| 20260508085024 | 41 | 0 | 0.0 | 0.0 | 0.00 | 0.00 | 0.00 | 90 | 1015.3 |
| 20260508084538 | 41 | 0 | 0.0 | 0.0 | 0.00 | 0.00 | 0.00 | 90 | 1015.3 |
| 20260508084024 | 41 | 0 | 0.0 | 0.0 | 0.00 | 0.00 | 0.00 | 90 | 1015.2 |
| 20260508083527 | 41 | 0 | 0.0 | 0.0 | 0.00 | 0.00 | 0.00 | 90 | 1015.1 |
| 20260508083048 | 41 | 0 | 0.0 | 0.0 | 0.00 | 0.00 | 0.00 | 90 | 1015.1 |
| 20260508082524 | 41 | 0 | 0.0 | 0.0 | 0.00 | 0.00 | 0.00 | 90 | 1015.2 |
| 20260508082024 | 41 | 0 | 0.0 | 0.0 | 0.00 | 0.00 | 0.00 | 90 | 1015.1 |
| 20260508081536 | 41 | 0 | 0.0 | 0.0 | 0.00 | 0.00 | 0.00 | 89 | 1015.1 |
| 20260508081023 | 41 | 0 | 0.0 | 0.0 | 0.00 | 0.00 | 0.00 | 88 | 1015.1 |
| 20260508080525 | 41 | 0 | 0.0 | 0.0 | 0.00 | 0.00 | 0.00 | 89 | 1015.0 |
| 20260508080057 | 41 | 0 | 0.0 | 0.0 | 0.00 | 0.00 | 0.00 | 89 | 1015.1 |
| 20260508075524 | 41 | 0 | 0.0 | 0.0 | 0.00 | 0.00 | 0.00 | 89 | 1015.0 |
| 20260508075023 | 41 | 0 | 0.0 | 0.0 | 0.00 | 0.00 | 0.00 | 88 | 1015.0 |
| 20260508074538 | 41 | 0 | 0.0 | 0.0 | 0.00 | 0.00 | 0.00 | 88 | 1015.1 |
| 20260508074023 | 41 | 0 | 0.0 | 0.0 | 0.00 | 0.00 | 0.00 | 88 | 1015.0 |
| 20260508073524 | 41 | 0 | 0.0 | 0.0 | 0.00 | 0.00 | 0.00 | 88 | 1015.0 |
| 20260508073048 | 42 | 0 | 0.0 | 0.0 | 0.00 | 0.00 | 0.00 | 88 | 1015.0 |
| 20260508072523 | 42 | 0 | 0.0 | 0.0 | 0.00 | 0.00 | 0.00 | 88 | 1014.9 |
| 20260508072023 | 42 | 0 | 0.0 | 0.0 | 0.00 | 0.00 | 0.00 | 88 | 1015.0 |
| 20260508071544 | 42 | 0 | 0.0 | 0.0 | 0.00 | 0.00 | 0.00 | 86 | 1015.1 |
| 20260508071023 | 42 | 0 | 0.0 | 0.0 | 0.00 | 0.00 | 0.00 | 85 | 1015.2 |
| 20260508070523 | 42 | 0 | 0.0 | 0.0 | 0.00 | 0.00 | 0.00 | 85 | 1015.2 |
| 20260508070039 | 42 | 0 | 0.0 | 0.0 | 0.00 | 0.00 | 0.00 | 85 | 1015.2 |
| 20260508065524 | 42 | 0 | 0.0 | 0.0 | 0.00 | 0.00 | 0.00 | 85 | 1015.3 |
| 20260508065023 | 42 | 0 | 0.0 | 0.0 | 0.00 | 0.00 | 0.00 | 86 | 1015.2 |
| 20260508064545 | 43 | 0 | 0.0 | 0.0 | 0.00 | 0.00 | 0.00 | 88 | 1015.2 |
| 20260508064025 | 43 | 0 | 0.0 | 0.0 | 0.00 | 0.00 | 0.00 | 88 | 1015.2 |
| 20260508063523 | 43 | 0 | 0.0 | 0.0 | 0.00 | 0.00 | 0.00 | 87 | 1015.4 |
| 20260508063037 | 43 | 0 | 0.0 | 0.0 | 0.00 | 0.00 | 0.00 | 84 | 1015.7 |
| 20260508062524 | 43 | 0 | 0.0 | 0.0 | 0.00 | 0.00 | 0.00 | 84 | 1015.7 |
| 20260508062024 | 43 | 0 | 0.0 | 0.0 | 0.00 | 0.00 | 0.00 | 84 | 1015.7 |
| 20260508061538 | 43 | 0 | 0.0 | 0.0 | 0.00 | 0.00 | 0.00 | 85 | 1015.8 |
| 20260508061024 | 43 | 0 | 0.0 | 0.0 | 0.00 | 0.00 | 0.00 | 85 | 1015.8 |
| 20260508060524 | 43 | 0 | 0.0 | 0.0 | 0.00 | 0.00 | 0.00 | 84 | 1015.8 |
| 20260508060036 | 43 | 0 | 0.0 | 0.0 | 0.00 | 0.00 | 0.00 | 83 | 1015.8 |
| 20260508055522 | 43 | 0 | 0.0 | 0.0 | 0.00 | 0.00 | 0.00 | 84 | 1015.9 |
| 20260508055024 | 43 | 0 | 0.0 | 0.0 | 0.00 | 0.00 | 0.00 | 85 | 1015.8 |
| 20260508054545 | 44 | 0 | 0.0 | 0.0 | 0.00 | 0.00 | 0.00 | 86 | 1015.7 |
| 20260508054025 | 44 | 0 | 0.0 | 0.0 | 0.00 | 0.00 | 0.00 | 85 | 1015.7 |
| 20260508053524 | 44 | 0 | 0.0 | 0.0 | 0.00 | 0.00 | 0.00 | 81 | 1015.8 |
| 20260508053040 | 44 | 0 | 0.0 | 0.0 | 0.00 | 0.00 | 0.00 | 80 | 1015.8 |
| 20260508052524 | 44 | 0 | 0.0 | 0.0 | 0.00 | 0.00 | 0.00 | 78 | 1015.9 |
| 20260508052022 | 44 | 0 | 0.0 | 0.0 | 0.00 | 0.00 | 0.00 | 79 | 1015.8 |
| 20260508051543 | 44 | 0 | 0.0 | 0.0 | 0.00 | 0.00 | 0.00 | 79 | 1015.8 |
| 20260508051029 | 44 | 0 | 0.0 | 0.0 | 0.00 | 0.00 | 0.00 | 79 | 1015.7 |
| 20260508050526 | 44 | 0 | 0.0 | 0.0 | 0.00 | 0.00 | 0.00 | 79 | 1015.8 |
| 20260508050049 | 44 | 0 | 0.0 | 0.0 | 0.00 | 0.00 | 0.00 | 80 | 1015.8 |
| 20260508045526 | 44 | 0 | 0.0 | 0.0 | 0.00 | 0.00 | 0.00 | 79 | 1015.7 |
| 20260508045023 | 44 | 0 | 0.0 | 0.0 | 0.00 | 0.00 | 0.00 | 80 | 1015.7 |
| 20260508044537 | 44 | 0 | 0.0 | 0.0 | 0.00 | 0.00 | 0.00 | 80 | 1015.8 |
| 20260508044026 | 44 | 0 | 0.0 | 0.0 | 0.00 | 0.00 | 0.00 | 80 | 1015.8 |
| 20260508043523 | 44 | 0 | 0.0 | 0.0 | 0.00 | 0.00 | 0.00 | 80 | 1015.7 |
| 20260508043038 | 44 | 0 | 0.0 | 0.0 | 0.00 | 0.00 | 0.00 | 80 | 1015.8 |
| 20260508042524 | 44 | 0 | 0.0 | 0.0 | 0.00 | 0.00 | 0.00 | 81 | 1015.8 |
| 20260508042026 | 44 | 0 | 0.0 | 0.0 | 0.00 | 0.00 | 0.00 | 82 | 1015.8 |
| 20260508041542 | 44 | 0 | 0.0 | 0.0 | 0.00 | 0.00 | 0.00 | 83 | 1015.7 |
| 20260508041024 | 44 | 0 | 0.0 | 0.0 | 0.00 | 0.00 | 0.00 | 83 | 1015.7 |
| 20260508040526 | 44 | 0 | 0.0 | 0.0 | 0.00 | 0.00 | 0.00 | 82 | 1015.7 |
| 20260508040052 | 44 | 0 | 0.0 | 0.0 | 0.00 | 0.00 | 0.00 | 82 | 1015.6 |
| 20260508035524 | 44 | 0 | 0.0 | 0.0 | 0.00 | 0.00 | 0.00 | 85 | 1015.5 |
| 20260508035028 | 45 | 0 | 0.0 | 0.0 | 0.00 | 0.00 | 0.00 | 86 | 1015.5 |
| 20260508034543 | 45 | 0 | 0.0 | 0.0 | 0.00 | 0.00 | 0.00 | 86 | 1015.4 |
| 20260508034024 | 45 | 0 | 0.0 | 0.0 | 0.00 | 0.00 | 0.00 | 84 | 1015.6 |
| 20260508033526 | 45 | 0 | 0.0 | 0.0 | 0.00 | 0.00 | 0.00 | 82 | 1015.6 |
| 20260508033037 | 45 | 0 | 0.0 | 0.0 | 0.00 | 0.00 | 0.00 | 81 | 1015.6 |
| 20260508032526 | 45 | 0 | 0.0 | 0.0 | 0.00 | 0.00 | 0.00 | 81 | 1015.8 |
| 20260508032028 | 45 | 0 | 0.0 | 0.0 | 0.00 | 0.00 | 0.00 | 82 | 1015.7 |
| 20260508031538 | 45 | 0 | 0.0 | 0.0 | 0.00 | 0.00 | 0.00 | 82 | 1015.7 |
| 20260508031030 | 45 | 0 | 0.0 | 0.0 | 0.00 | 0.00 | 0.00 | 83 | 1015.7 |
| 20260508030523 | 45 | 0 | 0.0 | 0.0 | 0.00 | 0.00 | 0.00 | 83 | 1015.7 |
| 20260508030049 | 45 | 0 | 0.0 | 0.0 | 0.00 | 0.00 | 0.00 | 83 | 1015.5 |
| 20260508025523 | 45 | 0 | 0.0 | 0.0 | 0.00 | 0.00 | 0.00 | 84 | 1015.5 |
| 20260508025024 | 45 | 0 | 0.0 | 0.0 | 0.00 | 0.00 | 0.00 | 84 | 1015.5 |
| 20260508024540 | 45 | 0 | 0.0 | 0.0 | 0.00 | 0.00 | 0.00 | 81 | 1015.5 |